Time;durP1;ratioP1;P1;durP2;ratioP2;P2;SDS_P1;SDS_P2;PMS_P1;PMS_P2;Temp;Humidity;BMP_temperature;BMP_pressure;BME280_temperature;BME280_humidity;BME280_pressure;Samples;Min_cycle;Max_cycle;Signal;HPM_P1;HPM_P2
2021/05/13 00:01:06;;;;;;;0.10;0.10;;;;;;;24.28;31.41;99241.97;5095431;28;20489;-54
2021/05/13 00:03:35;;;;;;;0.10;0.10;;;;;;;24.27;31.45;99238.31;5076861;28;20028;-55
2021/05/13 00:06:02;;;;;;;0.10;0.10;;;;;;;24.29;31.19;99243.63;5095304;28;20039;-57
2021/05/13 00:08:28;;;;;;;0.00;0.00;;;;;;;24.30;31.43;99246.09;5095220;28;20032;-57
2021/05/13 00:11:02;;;;;;;0.05;0.05;;;;;;;24.31;31.24;99238.53;5094693;28;20028;-57
2021/05/13 00:13:28;;;;;;;;;;;;;;;24.33;31.38;99241.03;5094575;28;20032;-57
2021/05/13 00:15:54;;;;;;;0.10;0.10;;;;;;;24.33;31.26;99244.66;5076371;28;19926;-57
2021/05/13 00:18:20;;;;;;;0.10;0.10;;;;;;;24.33;31.30;99247.47;5094759;28;20024;-56
2021/05/13 00:20:46;;;;;;;0.30;0.30;;;;;;;24.35;31.30;99247.13;5094732;28;20036;-56
2021/05/13 00:23:12;;;;;;;0.10;0.10;;;;;;;24.38;31.29;99243.69;5094518;28;20096;-57
2021/05/13 00:25:38;;;;;;;0.20;0.20;;;;;;;24.40;31.29;99249.84;5094422;28;20511;-57
2021/05/13 00:28:04;;;;;;;0.00;0.00;;;;;;;24.45;31.15;99249.72;5094821;28;20028;-57
2021/05/13 00:30:30;;;;;;;0.10;0.10;;;;;;;24.59;31.03;99252.53;5094862;28;20032;-57
2021/05/13 00:32:56;;;;;;;0.10;0.10;;;;;;;24.86;30.62;99251.56;5076091;28;20498;-57
2021/05/13 00:35:23;;;;;;;0.10;0.10;;;;;;;25.18;30.30;99258.88;5094388;28;20043;-57
2021/05/13 00:37:49;;;;;;;0.10;0.10;;;;;;;25.55;29.81;99252.31;5094453;28;20032;-57
2021/05/13 00:40:18;;;;;;;0.00;0.00;;;;;;;25.88;29.34;99247.13;5094047;28;20028;-54
2021/05/13 00:42:45;;;;;;;0.03;0.03;;;;;;;26.21;29.24;99249.56;5094352;28;20067;-54
2021/05/13 00:45:13;;;;;;;0.10;0.10;;;;;;;26.51;28.67;99250.56;5094087;28;20032;-58
2021/05/13 00:47:47;;;;;;;0.10;0.10;;;;;;;26.80;28.73;99257.56;5093894;28;20119;-57
2021/05/13 00:50:12;;;;;;;;;;;;;;;27.10;28.28;99254.88;5094360;28;20481;-57
2021/05/13 00:52:38;;;;;;;0.00;0.00;;;;;;;27.36;27.92;99259.66;5094203;28;19963;-55
2021/05/13 00:55:04;;;;;;;0.00;0.00;;;;;;;27.61;27.68;99261.53;5094012;28;20028;-55
2021/05/13 00:57:32;;;;;;;0.00;0.00;;;;;;;27.86;27.73;99250.47;5093782;28;20054;-55
2021/05/13 01:00:02;;;;;;;0.03;0.03;;;;;;;28.12;27.35;99266.44;5093773;28;20086;-55
2021/05/13 01:02:28;;;;;;;0.30;0.30;;;;;;;28.39;27.39;99262.28;5093738;28;20481;-55
2021/05/13 01:04:54;;;;;;;0.10;0.10;;;;;;;28.66;27.03;99248.81;5094019;28;20028;-55
2021/05/13 01:07:19;;;;;;;0.00;0.00;;;;;;;28.96;26.79;99263.69;5094108;28;20043;-54
2021/05/13 01:09:46;;;;;;;0.00;0.00;;;;;;;29.23;26.52;99255.78;5093755;28;20028;-56
2021/05/13 01:12:19;;;;;;;0.10;0.10;;;;;;;29.44;26.64;99254.88;5093488;28;20036;-55
2021/05/13 01:14:48;;;;;;;0.00;0.00;;;;;;;29.67;26.31;99258.09;5093493;28;20035;-56
2021/05/13 01:17:23;;;;;;;0.10;0.10;;;;;;;29.86;26.53;99255.53;5093427;28;20032;-54
2021/05/13 01:19:53;;;;;;;0.17;0.17;;;;;;;30.08;26.05;99250.59;5093417;28;20104;-59
2021/05/13 01:22:21;;;;;;;0.10;0.10;;;;;;;30.28;26.14;99248.78;5093461;28;20446;-59
2021/05/13 01:24:48;;;;;;;0.08;0.08;;;;;;;30.55;25.80;99246.38;5092508;28;20027;-54
2021/05/13 01:27:17;;;;;;;0.20;0.20;;;;;;;30.77;25.64;99253.50;5093500;28;20032;-55
2021/05/13 01:29:47;;;;;;;0.08;0.08;;;;;;;30.93;25.74;99259.22;5093433;28;20024;-56
2021/05/13 01:32:14;;;;;;;0.30;0.22;;;;;;;31.00;25.72;99253.00;5093168;28;20032;-55
2021/05/13 01:34:42;;;;;;;0.30;0.30;;;;;;;31.04;25.83;99262.44;5093110;28;20032;-56
2021/05/13 01:37:07;;;;;;;0.10;0.10;;;;;;;31.13;25.88;99265.09;5092839;28;20024;-55
2021/05/13 01:39:34;;;;;;;0.10;0.10;;;;;;;31.25;25.69;99263.00;5074826;28;20508;-54
2021/05/13 01:42:00;;;;;;;0.10;0.10;;;;;;;31.39;25.63;99268.25;5092868;28;20161;-55
2021/05/13 01:44:26;;;;;;;0.00;0.00;;;;;;;31.53;25.68;99275.50;5093134;28;20119;-55
2021/05/13 01:46:52;;;;;;;0.00;0.00;;;;;;;31.64;25.46;99270.97;5092860;28;20056;-55
2021/05/13 01:49:23;;;;;;;0.00;0.00;;;;;;;31.77;25.57;99252.66;5074698;28;20035;-52
2021/05/13 01:51:49;;;;;;;0.10;0.10;;;;;;;31.90;25.64;99258.22;5093113;28;20106;-56
2021/05/13 01:54:16;;;;;;;0.10;0.10;;;;;;;31.99;25.34;99264.53;5093074;28;20032;-56
2021/05/13 01:56:42;;;;;;;0.17;0.17;;;;;;;32.05;25.36;99267.91;5074068;28;20528;-56
2021/05/13 01:59:08;;;;;;;0.10;0.10;;;;;;;32.11;25.19;99269.28;5090893;28;20389;-54
2021/05/13 02:01:35;;;;;;;0.10;0.10;;;;;;;32.15;25.12;99273.06;5091158;28;20035;-54
2021/05/13 02:04:03;;;;;;;0.10;0.10;;;;;;;32.10;25.03;99268.47;5090830;28;20032;-52
2021/05/13 02:06:29;;;;;;;0.00;0.00;;;;;;;31.98;24.95;99271.41;5090994;28;20032;-54
2021/05/13 02:08:55;;;;;;;0.00;0.00;;;;;;;31.84;24.97;99277.53;5091052;28;20032;-53
2021/05/13 02:11:21;;;;;;;0.10;0.10;;;;;;;31.79;25.03;99275.81;5091048;28;20521;-52
2021/05/13 02:13:46;;;;;;;0.10;0.10;;;;;;;31.87;24.89;99278.84;5090986;28;20035;-53
2021/05/13 02:16:12;;;;;;;0.00;0.00;;;;;;;31.99;24.75;99278.72;5072892;28;20097;-54
2021/05/13 02:18:39;;;;;;;0.10;0.10;;;;;;;32.07;24.54;99289.06;5072887;28;20028;-52
2021/05/13 02:21:05;;;;;;;0.10;0.10;;;;;;;32.13;24.45;99283.97;5090935;28;20509;-53
2021/05/13 02:23:32;;;;;;;0.00;0.00;;;;;;;32.22;24.32;99278.09;5091032;28;20460;-55
2021/05/13 02:25:59;;;;;;;0.10;0.10;;;;;;;32.35;24.05;99279.63;5091579;28;20119;-53
2021/05/13 02:28:25;;;;;;;0.00;0.00;;;;;;;32.41;23.92;99278.13;5092135;28;20032;-55
2021/05/13 02:30:51;;;;;;;0.10;0.10;;;;;;;32.48;23.77;99278.31;5074316;28;20039;-54
2021/05/13 02:33:17;;;;;;;0.10;0.10;;;;;;;32.57;23.56;99283.78;5092769;28;20388;-54
2021/05/13 02:35:43;;;;;;;0.30;0.25;;;;;;;32.66;23.63;99284.41;5093285;28;20032;-54
2021/05/13 02:38:08;;;;;;;0.20;0.20;;;;;;;32.79;23.46;99292.81;5096314;28;20027;-55
2021/05/13 02:40:34;;;;;;;0.05;0.05;;;;;;;32.88;23.36;99281.19;5096975;28;20420;-54
2021/05/13 02:43:03;;;;;;;0.10;0.10;;;;;;;32.97;23.27;99284.66;5096469;28;20606;-54
2021/05/13 02:45:28;;;;;;;0.00;0.00;;;;;;;33.11;23.18;99281.25;5096767;28;20055;-56
2021/05/13 02:47:58;;;;;;;0.10;0.10;;;;;;;33.26;22.84;99282.41;5096718;28;20560;-55
2021/05/13 02:50:23;;;;;;;0.17;0.17;;;;;;;33.42;22.82;99285.16;5096120;28;20042;-54
2021/05/13 02:52:49;;;;;;;0.05;0.05;;;;;;;33.53;22.69;99280.47;5096265;28;20398;-55
2021/05/13 02:55:15;;;;;;;0.00;0.00;;;;;;;33.65;22.47;99279.47;5096261;28;20069;-55
2021/05/13 02:57:41;;;;;;;0.10;0.10;;;;;;;33.79;22.84;99279.75;5096031;28;20096;-55
2021/05/13 03:02:54;;;;;;;0.10;0.10;;;;;;;34.07;22.51;99269.19;5096027;28;20031;-56
2021/05/13 03:05:22;;;;;;;0.10;0.10;;;;;;;34.22;22.25;99279.63;5096553;28;20039;-56
2021/05/13 03:07:51;;;;;;;0.10;0.10;;;;;;;34.31;22.66;99283.06;5095792;28;20020;-56
2021/05/13 03:10:22;;;;;;;0.03;0.03;;;;;;;34.49;22.13;99277.59;5095882;28;20469;-56
2021/05/13 03:12:51;;;;;;;0.10;0.10;;;;;;;34.71;22.34;99277.91;5095838;28;20107;-55
2021/05/13 03:15:17;;;;;;;0.10;0.10;;;;;;;34.90;21.92;99280.63;5095973;28;20024;-55
2021/05/13 03:17:44;;;;;;;0.10;0.10;;;;;;;35.03;21.95;99274.69;5077504;28;20493;-54
2021/05/13 03:20:14;;;;;;;0.52;0.40;;;;;;;35.03;21.88;99281.19;5095922;28;20378;-54
2021/05/13 03:22:40;;;;;;;0.38;0.22;;;;;;;35.12;21.92;99285.81;5095572;28;20040;-54
2021/05/13 03:25:07;;;;;;;0.20;0.20;;;;;;;35.22;22.37;99279.41;5096166;28;20523;-54
2021/05/13 03:30:07;;;;;;;3.10;0.65;;;;;;;35.40;21.99;99277.56;5095551;28;20035;-55
2021/05/13 03:32:32;;;;;;;0.10;0.10;;;;;;;35.47;22.01;99282.53;5095937;28;20024;-55
2021/05/13 03:34:58;;;;;;;0.20;0.17;;;;;;;35.56;21.81;99276.50;5095563;28;20032;-55
2021/05/13 03:37:27;;;;;;;0.40;0.40;;;;;;;35.60;22.23;99269.63;5095569;28;20036;-54
2021/05/13 03:39:57;;;;;;;0.43;0.30;;;;;;;35.73;21.81;99272.16;5077093;28;20028;-54
2021/05/13 03:42:23;;;;;;;0.10;0.10;;;;;;;35.80;21.88;99272.25;5095193;28;20543;-55
2021/05/13 03:44:51;;;;;;;2.10;0.98;;;;;;;35.88;21.87;99270.28;5095478;28;20032;-55
2021/05/13 03:47:17;;;;;;;0.10;0.10;;;;;;;36.03;21.61;99280.63;5094101;28;20063;-54
2021/05/13 03:49:43;;;;;;;1.13;0.30;;;;;;;36.15;21.58;99273.78;5095475;28;20028;-55
2021/05/13 03:52:09;;;;;;;0.20;0.20;;;;;;;36.27;21.89;99270.56;5095014;28;20027;-55
2021/05/13 03:54:35;;;;;;;0.10;0.10;;;;;;;36.37;21.47;99269.03;5094917;28;20031;-55
2021/05/13 03:57:01;;;;;;;0.10;0.10;;;;;;;36.37;21.71;99269.03;5094995;28;20549;-55
2021/05/13 03:59:34;;;;;;;0.20;0.20;;;;;;;36.34;21.58;99261.28;5095184;28;20166;-54
2021/05/13 04:02:11;;;;;;;0.50;0.40;;;;;;;36.25;22.02;99269.31;5094909;28;20078;-55
2021/05/13 04:04:37;;;;;;;0.10;0.10;;;;;;;36.31;21.60;99259.22;5094712;28;20093;-56
2021/05/13 04:07:05;;;;;;;0.30;0.25;;;;;;;36.45;21.81;99261.31;5094604;28;20401;-56
2021/05/13 04:09:31;;;;;;;0.10;0.10;;;;;;;36.49;21.61;99270.75;5094682;28;20122;-56
2021/05/13 04:11:58;;;;;;;0.10;0.10;;;;;;;36.54;21.56;99264.63;5094981;28;20158;-55
2021/05/13 04:14:24;;;;;;;0.10;0.10;;;;;;;36.62;21.16;99254.88;5094841;28;20044;-56
2021/05/13 04:16:54;;;;;;;0.10;0.10;;;;;;;36.79;21.26;99275.41;5095096;28;20394;-56
2021/05/13 04:19:21;;;;;;;0.20;0.20;;;;;;;36.94;21.26;99262.84;5076404;28;20515;-56
2021/05/13 04:21:47;;;;;;;0.50;0.50;;;;;;;37.07;20.71;99269.00;5094751;28;20035;-57
2021/05/13 04:24:14;;;;;;;0.10;0.10;;;;;;;37.22;20.79;99264.16;5094913;28;20036;-56
2021/05/13 04:26:41;;;;;;;0.10;0.10;;;;;;;37.37;20.58;99264.19;5076275;28;20024;-56
2021/05/13 04:29:10;;;;;;;0.30;0.30;;;;;;;37.43;20.66;99251.13;5094291;28;20078;-56
2021/05/13 04:31:36;;;;;;;0.68;0.47;;;;;;;37.49;20.35;99244.56;5094520;28;20123;-57
2021/05/13 04:34:04;;;;;;;0.10;0.10;;;;;;;37.58;20.66;99247.03;5094519;28;20409;-55
2021/05/13 04:36:30;;;;;;;0.10;0.10;;;;;;;37.69;20.63;99256.47;5094086;28;20086;-55
2021/05/13 04:38:56;;;;;;;0.20;0.15;;;;;;;37.77;20.18;99259.38;5094410;28;20502;-54
2021/05/13 04:41:22;;;;;;;0.30;0.30;;;;;;;37.82;20.14;99253.22;5094566;28;20028;-55
2021/05/13 04:43:48;;;;;;;0.25;0.20;;;;;;;37.90;19.83;99254.88;5093983;28;20501;-55
2021/05/13 04:46:16;;;;;;;0.10;0.10;;;;;;;37.97;20.14;99246.28;5094488;28;20139;-53
2021/05/13 04:51:27;;;;;;;0.10;0.10;;;;;;;38.15;19.89;99236.81;5093900;28;20038;-56
2021/05/13 04:53:53;;;;;;;0.85;0.20;;;;;;;38.01;20.12;99246.25;5094401;28;20035;-55
2021/05/13 04:56:20;;;;;;;0.32;0.22;;;;;;;37.31;20.61;99249.44;5094053;28;20081;-56
2021/05/13 04:58:47;;;;;;;0.77;0.30;;;;;;;36.36;21.88;99250.25;5093902;28;20439;-55
2021/05/13 05:01:13;;;;;;;0.17;0.17;;;;;;;35.49;22.83;99245.03;5094251;28;20119;-55
2021/05/13 05:03:39;;;;;;;0.30;0.30;;;;;;;34.78;23.26;99245.81;5093873;28;20088;-56
2021/05/13 05:06:05;;;;;;;0.75;0.30;;;;;;;34.13;23.56;99237.16;5093675;28;20435;-56
2021/05/13 05:08:31;;;;;;;0.10;0.10;;;;;;;33.60;23.92;99245.59;5093506;28;20032;-55
2021/05/13 05:10:57;;;;;;;0.10;0.10;;;;;;;33.16;24.21;99238.31;5093952;28;20028;-54
2021/05/13 05:13:23;;;;;;;0.20;0.20;;;;;;;32.82;24.49;99240.88;5093842;28;20039;-56
2021/05/13 05:15:48;;;;;;;0.00;0.00;;;;;;;32.51;24.54;99241.78;5093627;28;20028;-55
2021/05/13 05:18:22;;;;;;;0.00;0.00;;;;;;;32.21;24.40;99225.31;5093622;28;20031;-55
2021/05/13 05:20:49;;;;;;;0.10;0.10;;;;;;;31.91;24.70;99237.97;5094053;28;20036;-56
2021/05/13 05:23:15;;;;;;;0.65;0.55;;;;;;;31.67;24.62;99227.66;5093818;28;20089;-56
2021/05/13 05:25:41;;;;;;;0.10;0.10;;;;;;;31.43;24.68;99240.81;5093237;28;20032;-54
2021/05/13 05:28:07;;;;;;;0.00;0.00;;;;;;;31.22;24.67;99226.84;5093450;28;20038;-55
2021/05/13 05:30:34;;;;;;;0.00;0.00;;;;;;;31.04;24.71;99229.22;5093241;28;20078;-53
2021/05/13 05:33:08;;;;;;;0.00;0.00;;;;;;;30.87;24.56;99223.81;5075065;28;20516;-54
2021/05/13 05:35:35;;;;;;;0.90;0.30;;;;;;;30.70;24.66;99220.13;5093274;28;20028;-56
2021/05/13 05:38:02;;;;;;;0.00;0.00;;;;;;;30.57;24.51;99222.16;5093611;28;20051;-53
2021/05/13 05:40:28;;;;;;;0.00;0.00;;;;;;;30.46;24.49;99225.88;5075001;28;20024;-53
2021/05/13 05:42:54;;;;;;;0.10;0.10;;;;;;;30.34;24.52;99215.38;5093051;28;20032;-53
2021/05/13 05:45:21;;;;;;;0.00;0.00;;;;;;;30.23;24.11;99217.88;5092821;28;20031;-55
2021/05/13 05:47:48;;;;;;;0.10;0.10;;;;;;;30.10;24.46;99222.72;5093445;28;20063;-54
2021/05/13 05:50:14;;;;;;;0.10;0.10;;;;;;;29.96;24.43;99214.63;5093067;28;20038;-54
2021/05/13 05:52:40;;;;;;;0.00;0.00;;;;;;;29.83;24.40;99218.63;5093139;28;20032;-53
2021/05/13 05:55:08;;;;;;;0.10;0.10;;;;;;;29.70;24.34;99209.28;5093426;28;20039;-54
2021/05/13 05:57:34;;;;;;;0.00;0.00;;;;;;;29.61;24.38;99217.91;5093259;28;20039;-54
2021/05/13 05:59:59;;;;;;;0.00;0.00;;;;;;;29.52;24.17;99211.53;5092830;28;20028;-54
2021/05/13 06:02:25;;;;;;;0.10;0.10;;;;;;;29.46;24.38;99207.25;5075122;28;20386;-53
2021/05/13 06:04:52;;;;;;;0.28;0.28;;;;;;;29.40;24.00;99212.31;5074615;28;20039;-53
2021/05/13 06:07:19;;;;;;;0.10;0.10;;;;;;;29.33;24.20;99204.44;5092963;28;20036;-55
2021/05/13 06:09:45;;;;;;;0.10;0.10;;;;;;;29.26;24.38;99212.66;5058010;28;20405;-55
2021/05/13 06:12:12;;;;;;;0.10;0.10;;;;;;;29.16;24.06;99201.78;5092466;28;20032;-55
2021/05/13 06:14:38;;;;;;;0.00;0.00;;;;;;;29.11;24.08;99204.84;5074670;28;20501;-55
2021/05/13 06:17:03;;;;;;;0.10;0.10;;;;;;;29.02;24.11;99200.09;5092945;28;20046;-53
2021/05/13 06:19:29;;;;;;;0.10;0.10;;;;;;;28.94;23.96;99209.47;5092775;28;20032;-53
2021/05/13 06:21:55;;;;;;;0.10;0.10;;;;;;;28.88;23.81;99208.06;5092924;28;20024;-53
2021/05/13 06:24:21;;;;;;;0.08;0.08;;;;;;;28.80;24.29;99206.16;5093090;28;20067;-53
2021/05/13 06:27:00;;;;;;;0.00;0.00;;;;;;;28.74;24.19;99205.53;5092658;28;20398;-53
2021/05/13 06:29:28;;;;;;;0.00;0.00;;;;;;;28.65;24.13;99199.13;5092506;28;20466;-54
2021/05/13 06:31:55;;;;;;;0.00;0.00;;;;;;;28.60;24.00;99199.31;5092372;28;20513;-53
2021/05/13 06:34:21;;;;;;;0.10;0.10;;;;;;;28.54;24.27;99207.19;5092338;28;20028;-53
2021/05/13 06:36:46;;;;;;;0.10;0.10;;;;;;;28.51;23.80;99207.88;5092917;28;20034;-53
2021/05/13 06:39:13;;;;;;;0.10;0.10;;;;;;;28.47;24.04;99210.56;5092896;28;20468;-53
2021/05/13 06:41:41;;;;;;;0.20;0.20;;;;;;;28.44;24.15;99207.59;5092421;28;20073;-53
2021/05/13 06:44:07;;;;;;;0.10;0.10;;;;;;;28.40;23.76;99195.34;5092316;28;20032;-53
2021/05/13 06:46:33;;;;;;;0.10;0.10;;;;;;;28.34;23.95;99206.00;5092792;28;20059;-53
2021/05/13 06:48:59;;;;;;;0.00;0.00;;;;;;;28.29;23.86;99206.22;5087692;28;20040;-54
2021/05/13 06:51:25;;;;;;;0.43;0.43;;;;;;;28.25;23.95;99206.09;5089000;28;20032;-53
2021/05/13 06:53:51;;;;;;;0.25;0.25;;;;;;;28.22;23.97;99195.47;5072129;28;20062;-53
2021/05/13 06:56:17;;;;;;;0.00;0.00;;;;;;;28.20;23.77;99197.81;5071401;28;20036;-52
2021/05/13 06:58:45;;;;;;;0.00;0.00;;;;;;;28.16;23.93;99196.03;5069769;28;20024;-53
2021/05/13 07:01:11;;;;;;;4.18;0.20;;;;;;;28.10;24.06;99187.75;5070095;28;20028;-53
2021/05/13 07:03:37;;;;;;;0.40;0.40;;;;;;;28.10;23.93;99192.59;5052743;28;20028;-55
2021/05/13 07:06:04;;;;;;;0.03;0.03;;;;;;;28.08;23.96;99192.94;5088123;28;20028;-54
2021/05/13 07:08:30;;;;;;;0.22;0.22;;;;;;;28.05;23.82;99190.78;5087850;28;20028;-54
2021/05/13 07:10:56;;;;;;;0.40;0.35;;;;;;;28.04;23.68;99177.84;5087442;28;20032;-54
2021/05/13 07:13:22;;;;;;;0.30;0.30;;;;;;;28.04;24.07;99182.66;5085610;28;20036;-54
2021/05/13 07:15:48;;;;;;;0.10;0.10;;;;;;;28.01;24.18;99195.47;5088028;28;20047;-54
2021/05/13 07:18:15;;;;;;;0.15;0.15;;;;;;;27.96;24.04;99188.00;5088014;28;20062;-54
2021/05/13 07:20:42;;;;;;;0.30;0.30;;;;;;;27.86;23.95;99179.94;5087383;28;20028;-54
2021/05/13 07:23:09;;;;;;;0.10;0.10;;;;;;;27.80;24.13;99173.66;5086013;28;20122;-55
2021/05/13 07:25:36;;;;;;;0.08;0.08;;;;;;;27.76;23.86;99167.03;5091962;28;20043;-55
2021/05/13 07:28:03;;;;;;;0.05;0.05;;;;;;;27.74;23.91;99171.38;5091313;28;20525;-55
2021/05/13 07:30:29;;;;;;;0.00;0.00;;;;;;;27.72;23.91;99179.34;5089139;28;20039;-55
2021/05/13 07:32:56;;;;;;;0.10;0.10;;;;;;;27.74;23.71;99160.91;5089960;28;20055;-56
2021/05/13 07:35:22;;;;;;;0.10;0.10;;;;;;;27.72;24.11;99160.41;5090680;28;20562;-55
2021/05/13 07:37:48;;;;;;;0.10;0.10;;;;;;;27.72;24.09;99159.59;5090287;28;20055;-55
2021/05/13 07:40:18;;;;;;;0.70;0.22;;;;;;;27.70;23.81;99157.13;5090973;28;20106;-55
2021/05/13 07:42:44;;;;;;;0.10;0.10;;;;;;;27.72;24.13;99159.59;5073344;28;20035;-55
2021/05/13 07:45:11;;;;;;;0.10;0.10;;;;;;;27.74;23.71;99160.09;5088364;28;20020;-56
2021/05/13 07:47:38;;;;;;;0.05;0.05;;;;;;;27.76;23.74;99160.56;5087205;28;20035;-56
2021/05/13 07:50:08;;;;;;;0.10;0.10;;;;;;;27.77;23.90;99156.59;5091209;28;21544;-56
2021/05/13 07:52:35;;;;;;;0.10;0.10;;;;;;;27.77;23.98;99163.06;5091029;28;20115;-56
2021/05/13 07:55:02;;;;;;;0.52;0.52;;;;;;;27.79;23.98;99157.06;5088839;28;20392;-56
2021/05/13 07:57:28;;;;;;;0.10;0.10;;;;;;;27.79;23.66;99160.72;5089917;28;20158;-56
2021/05/13 07:59:53;;;;;;;0.10;0.10;;;;;;;27.77;23.65;99162.25;5090431;28;20035;-56
2021/05/13 08:02:20;;;;;;;0.15;0.15;;;;;;;27.71;24.13;99172.03;5090889;28;20031;-55
2021/05/13 08:04:46;;;;;;;0.00;0.00;;;;;;;27.67;24.17;99162.63;5089405;28;20036;-56
2021/05/13 08:07:11;;;;;;;0.10;0.10;;;;;;;27.62;23.98;99153.19;5071522;28;20398;-56
2021/05/13 08:09:37;;;;;;;0.00;0.00;;;;;;;27.58;23.66;99149.41;5087829;28;20081;-55
2021/05/13 08:12:03;;;;;;;0.10;0.10;;;;;;;27.59;23.73;99144.56;5090174;28;20462;-55
2021/05/13 08:14:29;;;;;;;0.10;0.10;;;;;;;27.60;24.01;99157.50;5090493;28;20982;-56
2021/05/13 08:16:55;;;;;;;2.08;0.30;;;;;;;27.64;24.08;99160.50;5090241;28;20067;-56
2021/05/13 08:19:20;;;;;;;0.63;0.63;;;;;;;27.66;23.61;99155.31;5090684;28;20063;-56
2021/05/13 08:21:47;;;;;;;0.10;0.10;;;;;;;27.69;23.85;99154.66;5072319;28;20024;-57
2021/05/13 08:24:12;;;;;;;0.17;0.17;;;;;;;27.71;23.88;99157.94;5090512;28;20035;-55
2021/05/13 08:26:38;;;;;;;0.10;0.10;;;;;;;27.72;23.84;99148.31;5090188;28;20027;-56
2021/05/13 08:29:04;;;;;;;0.00;0.00;;;;;;;27.74;23.79;99151.63;5089902;28;20489;-57
2021/05/13 08:31:31;;;;;;;0.32;0.32;;;;;;;27.74;23.93;99151.63;5090341;28;20024;-56
2021/05/13 08:33:57;;;;;;;0.10;0.10;;;;;;;27.70;23.59;99143.00;5087935;28;20063;-56
2021/05/13 08:36:23;;;;;;;0.10;0.10;;;;;;;27.69;23.85;99154.66;5090109;28;20075;-56
2021/05/13 08:38:48;;;;;;;0.10;0.10;;;;;;;27.69;23.63;99149.00;5089640;28;20024;-54
2021/05/13 08:41:14;;;;;;;0.10;0.10;;;;;;;27.69;23.97;99154.66;5072356;28;20059;-52
2021/05/13 08:43:44;;;;;;;0.10;0.10;;;;;;;27.69;23.62;99141.34;5087314;28;20036;-50
2021/05/13 08:46:11;;;;;;;0.10;0.10;;;;;;;27.71;23.68;99126.91;5071873;28;20152;-55
2021/05/13 08:48:37;;;;;;;0.00;0.00;;;;;;;27.72;23.47;99139.84;5090047;28;20123;-53
2021/05/13 08:51:03;;;;;;;0.00;0.00;;;;;;;27.69;23.72;99134.91;5089746;28;20107;-54
2021/05/13 08:53:32;;;;;;;0.10;0.10;;;;;;;27.69;23.94;99132.06;5071952;28;20489;-53
2021/05/13 08:55:57;;;;;;;0.30;0.22;;;;;;;27.67;23.82;99138.06;5087942;28;20123;-50
2021/05/13 08:58:23;;;;;;;0.00;0.00;;;;;;;27.66;23.78;99138.41;5066919;28;20034;-51
2021/05/13 09:00:55;;;;;;;0.10;0.10;;;;;;;27.64;23.53;99133.09;5087464;28;20035;-50
2021/05/13 09:03:35;;;;;;;0.00;0.00;;;;;;;27.63;23.57;99134.25;5071099;28;20024;-53
2021/05/13 09:06:02;;;;;;;0.10;0.10;;;;;;;27.62;23.81;99122.16;5084014;28;20035;-53
2021/05/13 09:08:28;;;;;;;0.10;0.10;;;;;;;27.61;23.75;99112.03;5087087;28;20058;-50
2021/05/13 09:11:08;;;;;;;0.00;0.00;;;;;;;27.58;23.82;99128.84;5084191;28;20588;-50
2021/05/13 09:13:34;;;;;;;0.00;0.00;;;;;;;27.58;23.53;99131.66;5088701;28;20043;-51
2021/05/13 09:16:02;;;;;;;0.10;0.10;;;;;;;27.60;23.82;99132.13;5088716;28;20035;-51
2021/05/13 09:18:33;;;;;;;0.10;0.10;;;;;;;27.60;23.87;99112.38;5085330;28;20029;-53
2021/05/13 09:21:04;;;;;;;0.00;0.00;;;;;;;27.60;23.69;99127.31;5088845;28;20028;-53
2021/05/13 09:23:31;;;;;;;0.03;0.03;;;;;;;27.61;23.74;99131.78;5086959;28;20031;-51
2021/05/13 09:26:09;;;;;;;0.00;0.00;;;;;;;27.63;23.71;99117.34;5088967;28;20097;-49
2021/05/13 09:28:36;;;;;;;0.00;0.00;;;;;;;27.64;23.61;99115.38;5086714;28;20024;-50
2021/05/13 09:31:02;;;;;;;0.10;0.10;;;;;;;27.62;23.26;99110.88;5071207;28;20564;-55
2021/05/13 09:33:30;;;;;;;0.20;0.20;;;;;;;27.62;23.73;99116.53;5085429;28;20119;-49
2021/05/13 09:35:57;;;;;;;0.22;0.22;;;;;;;27.64;23.75;99104.91;5085486;28;20028;-50
2021/05/13 09:38:33;;;;;;;0.00;0.00;;;;;;;27.66;23.33;99104.56;5089174;28;20493;-49
2021/05/13 09:41:00;;;;;;;0.95;0.10;;;;;;;27.66;23.61;99113.03;5086803;28;20028;-49
2021/05/13 09:43:33;;;;;;;0.10;0.10;;;;;;;27.67;23.26;99101.38;5088655;28;20043;-48
2021/05/13 09:46:01;;;;;;;0.03;0.03;;;;;;;27.68;23.40;99113.50;5086184;28;20042;-48
2021/05/13 09:48:40;;;;;;;0.10;0.10;;;;;;;27.68;23.69;99105.88;5088989;28;20063;-48
2021/05/13 09:51:23;;;;;;;0.00;0.00;;;;;;;27.66;23.40;99105.38;5087512;28;20035;-49
2021/05/13 09:54:09;;;;;;;0.13;0.13;;;;;;;27.64;23.46;99102.06;5087212;28;20393;-51
2021/05/13 09:56:38;;;;;;;0.10;0.10;;;;;;;27.65;23.55;99111.34;5088437;28;20127;-52
2021/05/13 09:59:23;;;;;;;0.00;0.00;;;;;;;27.68;23.48;99102.22;5084435;28;20553;-50
2021/05/13 10:01:53;;;;;;;0.03;0.03;;;;;;;27.68;23.56;99093.75;5087810;28;20412;-52
2021/05/13 10:04:19;;;;;;;0.00;0.00;;;;;;;27.70;23.33;99103.53;5085126;28;20089;-50
2021/05/13 10:06:46;;;;;;;0.10;0.10;;;;;;;27.71;23.25;99095.88;5067431;28;20120;-52
2021/05/13 10:09:16;;;;;;;0.00;0.00;;;;;;;27.72;23.42;99089.06;5084420;28;20040;-52
2021/05/13 10:11:54;;;;;;;0.00;0.00;;;;;;;27.74;23.27;99093.22;5078162;28;20738;-48
2021/05/13 10:14:23;;;;;;;0.10;0.10;;;;;;;27.77;23.47;99105.81;5081747;28;20067;-54
2021/05/13 10:16:51;;;;;;;0.00;0.00;;;;;;;27.77;23.22;99103.00;5080060;28;20042;-50
2021/05/13 10:19:34;;;;;;;0.10;0.10;;;;;;;27.78;23.01;99096.16;5088309;28;20031;-52
2021/05/13 10:22:04;;;;;;;0.10;0.10;;;;;;;27.77;23.48;99089.69;5089846;28;20036;-51
2021/05/13 10:24:30;;;;;;;0.10;0.10;;;;;;;27.78;23.45;99091.38;5089763;28;20036;-52
2021/05/13 10:26:56;;;;;;;0.15;0.10;;;;;;;27.79;23.42;99097.81;5086610;28;20045;-54
2021/05/13 10:29:22;;;;;;;0.10;0.10;;;;;;;27.80;23.43;99096.66;5088205;28;20131;-51
2021/05/13 10:32:00;;;;;;;0.10;0.10;;;;;;;27.80;23.35;99089.00;5088760;28;20176;-52
2021/05/13 10:34:41;;;;;;;0.20;0.20;;;;;;;27.83;23.32;99086.66;5089984;28;20166;-52
2021/05/13 10:37:17;;;;;;;0.00;0.00;;;;;;;27.83;23.40;99092.31;5070040;28;20028;-52
2021/05/13 10:40:30;;;;;;;0.00;0.00;;;;;;;27.83;23.07;99081.88;5089679;28;20039;-53
2021/05/13 10:43:04;;;;;;;0.00;0.00;;;;;;;27.82;23.21;99085.03;5089474;28;20059;-51
2021/05/13 10:45:29;;;;;;;0.00;0.00;;;;;;;27.82;23.03;99090.66;5089451;28;20063;-51
2021/05/13 10:48:15;;;;;;;0.10;0.10;;;;;;;27.84;23.34;99083.53;5087323;28;20062;-51
2021/05/13 10:50:53;;;;;;;0.03;0.03;;;;;;;27.84;23.04;99083.53;5088299;28;20074;-50
2021/05/13 10:56:30;;;;;;;0.73;0.45;;;;;;;27.86;23.02;99086.00;5089560;28;20544;-50
2021/05/13 10:59:08;;;;;;;0.00;0.00;;;;;;;27.86;23.09;99074.72;5091234;28;20501;-50
2021/05/13 11:01:46;;;;;;;0.10;0.10;;;;;;;27.87;23.00;99068.72;5091338;28;20123;-49
2021/05/13 11:04:21;;;;;;;0.20;0.20;;;;;;;27.87;23.32;99065.91;5093104;28;20040;-52
2021/05/13 11:06:48;;;;;;;0.00;0.00;;;;;;;27.89;23.01;99069.19;5091195;28;20050;-50
2021/05/13 11:09:42;;;;;;;0.30;0.20;;;;;;;27.91;23.09;99063.19;5092137;28;20505;-53
2021/05/13 11:12:42;;;;;;;0.00;0.00;;;;;;;27.91;23.36;99066.84;5089236;28;20092;-52
2021/05/13 11:17:44;;;;;;;0.20;0.20;;;;;;;27.91;23.22;99078.13;5086311;28;20044;-50
2021/05/13 11:20:22;;;;;;;0.03;0.03;;;;;;;27.93;23.47;99069.31;5089259;28;20039;-52
2021/05/13 11:23:05;;;;;;;0.10;0.10;;;;;;;27.93;23.07;99058.03;5087183;28;20040;-51
2021/05/13 11:25:51;;;;;;;0.00;0.00;;;;;;;27.94;23.39;99070.97;5087560;28;20445;-52
2021/05/13 11:28:16;;;;;;;0.10;0.10;;;;;;;27.94;23.32;99065.34;5089099;28;20568;-53
2021/05/13 11:30:42;;;;;;;0.00;0.00;;;;;;;27.96;23.17;99075.13;5092468;28;20123;-48
2021/05/13 11:33:11;;;;;;;0.00;0.00;;;;;;;27.96;23.37;99058.19;5090844;28;20040;-52
2021/05/13 11:35:38;;;;;;;0.10;0.10;;;;;;;27.98;23.23;99071.16;5092335;28;20082;-49
2021/05/13 11:38:23;;;;;;;0.10;0.10;;;;;;;28.00;23.49;99051.88;5092574;28;20032;-53
2021/05/13 11:40:51;;;;;;;0.10;0.10;;;;;;;28.01;23.29;99059.19;5092986;28;20119;-50
2021/05/13 11:43:19;;;;;;;0.17;0.17;;;;;;;28.01;23.30;99059.19;5092228;28;20038;-44
2021/05/13 11:45:45;;;;;;;0.10;0.10;;;;;;;28.03;23.19;99054.00;5092486;28;20101;-49
2021/05/13 11:48:44;;;;;;;0.52;0.50;;;;;;;28.03;23.65;99052.00;5092553;28;20044;-47
2021/05/13 11:51:10;;;;;;;0.00;0.00;;;;;;;28.03;23.26;99054.81;5087062;28;20048;-49
2021/05/13 11:53:38;;;;;;;0.22;0.22;;;;;;;28.05;23.25;99046.03;5092470;28;20036;-48